Time;durP1;ratioP1;P1;durP2;ratioP2;P2;SDS_P1;SDS_P2;PMS_P1;PMS_P2;Temp;Humidity;BMP_temperature;BMP_pressure;BME280_temperature;BME280_humidity;BME280_pressure;Samples;Min_cycle;Max_cycle;Signal;HPM_P1;HPM_P2
2022/04/12 18:42:02;;;;;;;1.40;1.20;;;;;;;18.04;45.45;96955.50;4924790;23;20224;-90
2022/04/12 18:44:29;;;;;;;5.63;1.40;;;;;;;17.92;45.46;96938.16;4937968;29;20189;-91
2022/04/12 18:46:56;;;;;;;2.00;1.63;;;;;;;18.86;45.04;97099.94;4942044;29;20197;-91
2022/04/12 18:49:22;;;;;;;3.77;1.40;;;;;;;18.80;45.47;97088.72;4909920;29;20196;-91
2022/04/12 18:51:49;;;;;;;2.07;1.40;;;;;;;18.08;45.76;96991.25;4940341;29;20226;-91
2022/04/12 18:54:17;;;;;;;1.53;1.40;;;;;;;18.27;45.30;97003.78;4920532;29;20241;-91
2022/04/12 18:56:43;;;;;;;2.37;1.40;;;;;;;17.37;45.54;96858.28;4892968;29;20428;-91
2022/04/12 18:59:10;;;;;;;2.17;1.20;;;;;;;18.36;45.55;97010.00;4904016;29;20206;-91
2022/04/12 19:01:37;;;;;;;5.60;1.53;;;;;;;18.91;45.40;97113.69;4907512;29;20234;-91
2022/04/12 19:04:04;;;;;;;3.33;1.37;;;;;;;17.97;45.54;96951.03;4912140;29;20193;-92
2022/04/12 19:06:31;;;;;;;1.43;1.33;;;;;;;17.50;45.47;96864.69;4909549;29;20202;-91
2022/04/12 19:08:59;;;;;;;2.40;1.33;;;;;;;18.34;45.46;97021.78;4906075;29;20380;-91
2022/04/12 19:11:26;;;;;;;4.47;1.30;;;;;;;18.73;45.55;97077.47;4924639;29;20269;-91
2022/04/12 19:13:54;;;;;;;2.80;1.23;;;;;;;18.34;45.50;97021.78;4909741;29;20189;-92
2022/04/12 19:16:21;;;;;;;2.63;1.50;;;;;;;18.83;45.58;97106.63;4910089;29;20248;-92
2022/04/12 19:18:48;;;;;;;1.97;1.60;;;;;;;17.76;45.54;96935.91;4909988;29;20254;-91
2022/04/12 19:21:17;;;;;;;1.33;1.20;;;;;;;19.01;45.56;97142.88;4924503;29;20194;-92
2022/04/12 19:23:44;;;;;;;2.23;1.40;;;;;;;19.02;45.68;97149.69;4894461;29;20253;-92
2022/04/12 19:26:11;;;;;;;1.73;1.17;;;;;;;18.96;45.41;97129.13;4909396;29;20216;-92
2022/04/12 19:28:37;;;;;;;2.03;1.30;;;;;;;18.58;45.67;97069.31;4909395;29;20182;-91
2022/04/12 19:31:04;;;;;;;3.07;1.60;;;;;;;17.78;45.50;96933.41;4939975;29;20242;-91
2022/04/12 19:33:31;;;;;;;2.20;1.20;;;;;;;18.16;45.60;97000.03;4924958;29;20173;-91
2022/04/12 19:35:58;;;;;;;1.40;1.30;;;;;;;18.21;45.60;97008.66;4925035;29;20214;-91
2022/04/12 19:38:25;;;;;;;1.73;1.27;;;;;;;18.14;45.48;97001.63;4924644;29;20202;-91
2022/04/12 19:40:52;;;;;;;2.00;1.33;;;;;;;18.48;45.24;97057.09;4924764;29;20317;-90
2022/04/12 19:43:19;;;;;;;1.63;1.53;;;;;;;18.51;45.56;97071.59;4921268;29;20211;-92
2022/04/12 19:45:45;;;;;;;1.03;1.03;;;;;;;18.56;45.66;97070.09;4905882;29;20178;-91
2022/04/12 19:48:12;;;;;;;1.83;1.30;;;;;;;18.18;45.54;97008.56;4905846;29;20186;-90
2022/04/12 19:50:39;;;;;;;1.43;1.30;;;;;;;19.20;45.37;97184.28;4889759;29;20191;-91
2022/04/12 19:53:06;;;;;;;1.30;1.20;;;;;;;18.57;45.50;97077.78;4921238;29;20244;-90
2022/04/12 19:55:33;;;;;;;1.67;1.40;;;;;;;19.06;45.33;97169.34;4905621;29;20211;-91
2022/04/12 19:58:17;;;;;;;1.40;1.30;;;;;;;17.94;45.42;97004.28;4872812;29;20198;-91
2022/04/12 20:00:44;;;;;;;1.87;1.50;;;;;;;17.56;45.65;96949.56;4890144;29;20182;-91
2022/04/12 20:03:11;;;;;;;1.37;1.20;;;;;;;18.64;45.60;97087.34;4920171;29;20195;-90
2022/04/12 20:05:37;;;;;;;1.30;1.20;;;;;;;19.00;45.71;97146.22;4890908;29;20539;-90
2022/04/12 20:08:04;;;;;;;1.50;1.40;;;;;;;19.00;45.69;97153.88;4889340;29;20185;-90
2022/04/12 20:10:35;;;;;;;1.23;1.10;;;;;;;18.56;45.56;97077.72;4905108;29;20198;-92
2022/04/12 20:13:21;;;;;;;1.30;1.20;;;;;;;18.15;45.78;97003.38;5103847;27;1317009;-91
2022/04/12 20:15:48;;;;;;;1.30;1.20;;;;;;;17.86;45.89;96973.53;5117009;28;20183;-91
2022/04/12 20:18:14;;;;;;;1.50;1.40;;;;;;;17.98;45.60;96996.84;5116878;28;20186;-90
2022/04/12 20:20:42;;;;;;;1.57;1.30;;;;;;;18.57;45.72;97062.50;5134183;28;20198;-90
2022/04/12 20:23:09;;;;;;;1.40;1.30;;;;;;;18.88;45.54;97120.38;5116903;28;20190;-90
2022/04/12 20:25:36;;;;;;;1.73;1.33;;;;;;;18.08;45.72;96965.84;5116897;28;20171;-91
2022/04/12 20:28:03;;;;;;;1.80;1.30;;;;;;;19.01;45.83;97125.91;5116905;28;20179;-91
2022/04/12 20:30:30;;;;;;;1.40;1.30;;;;;;;18.51;45.70;97041.06;5116424;28;20420;-90
2022/04/12 20:32:58;;;;;;;1.30;1.13;;;;;;;18.64;45.74;97072.06;5096214;28;20218;-91
2022/04/12 20:35:25;;;;;;;1.30;1.20;;;;;;;18.12;45.48;96985.47;5107821;28;20171;-91
2022/04/12 20:37:59;;;;;;;1.43;1.33;;;;;;;18.32;45.83;97029.38;5133673;28;20190;-91
2022/04/12 20:40:25;;;;;;;1.17;1.17;;;;;;;18.80;45.75;97097.19;5133637;28;20190;-90
2022/04/12 20:42:55;;;;;;;1.33;1.23;;;;;;;18.27;45.69;97019.84;5133947;28;20199;-90
2022/04/12 20:45:22;;;;;;;1.73;1.30;;;;;;;18.21;45.86;97010.34;5095732;28;20258;-91
2022/04/12 20:47:50;;;;;;;1.67;1.30;;;;;;;18.95;45.67;97129.97;5126130;28;20175;-90
2022/04/12 20:50:17;;;;;;;2.00;1.40;;;;;;;18.07;45.60;96998.84;5116049;28;20183;-90
2022/04/12 20:52:43;;;;;;;1.47;1.37;;;;;;;18.21;45.74;97011.19;5133693;28;20222;-90
2022/04/12 20:55:10;;;;;;;1.40;1.30;;;;;;;18.95;45.96;97151.16;5097715;28;20198;-90
2022/04/12 20:57:37;;;;;;;1.30;1.20;;;;;;;18.92;45.67;97145.13;5115775;28;20195;-90
2022/04/12 21:00:06;;;;;;;1.73;1.30;;;;;;;18.29;45.85;97031.81;5115399;28;20183;-90
2022/04/12 21:02:33;;;;;;;1.27;1.27;;;;;;;18.97;45.96;97148.69;5116139;28;20202;-90
2022/04/12 21:05:00;;;;;;;2.43;1.37;;;;;;;18.31;45.76;97053.09;5115991;28;20191;-91
2022/04/12 21:07:27;;;;;;;1.40;1.30;;;;;;;19.15;45.95;97180.72;5115852;28;20179;-91
2022/04/12 21:09:54;;;;;;;2.93;1.47;;;;;;;18.16;45.80;97034.75;5097933;28;20180;-91
2022/04/12 21:12:20;;;;;;;1.90;1.33;;;;;;;18.50;45.76;97077.50;5132437;28;20237;-90
2022/04/12 21:14:47;;;;;;;1.30;1.20;;;;;;;18.15;45.98;97015.22;5095619;28;20249;-91
2022/04/12 21:17:13;;;;;;;1.20;1.10;;;;;;;19.24;45.81;97200.53;5110418;28;20209;-91
2022/04/12 21:19:42;;;;;;;1.80;1.40;;;;;;;18.31;45.89;97045.44;5115624;28;20171;-91
2022/04/12 21:22:08;;;;;;;1.20;1.10;;;;;;;17.75;45.69;96986.69;5133271;28;20215;-90
2022/04/12 21:24:36;;;;;;;1.07;0.97;;;;;;;18.53;45.88;97078.47;5118874;28;20277;-91
2022/04/12 21:27:03;;;;;;;1.30;1.20;;;;;;;18.08;45.94;97024.31;5119522;28;20179;-90
2022/04/12 21:29:31;;;;;;;1.30;1.20;;;;;;;18.15;45.88;97031.34;5102406;28;20191;-91
2022/04/12 21:31:58;;;;;;;1.40;1.30;;;;;;;19.16;45.82;97200.28;5101867;28;20222;-91
2022/04/12 21:34:25;;;;;;;1.30;1.20;;;;;;;18.17;45.90;97013.59;5119260;28;20349;-91
2022/04/12 21:36:52;;;;;;;1.30;1.20;;;;;;;18.32;45.83;97046.31;5119031;28;20176;-91
2022/04/12 21:39:18;;;;;;;1.40;1.30;;;;;;;18.52;45.88;97068.22;5119432;28;20176;-91
2022/04/12 21:41:47;;;;;;;1.10;1.10;;;;;;;18.47;45.75;97070.63;5101036;28;20207;-91
2022/04/12 21:44:13;;;;;;;1.23;1.13;;;;;;;18.24;45.82;97025.72;5101953;28;20180;-89
2022/04/12 21:46:40;;;;;;;1.30;1.20;;;;;;;17.67;45.96;96938.13;5101577;28;20201;-90
2022/04/12 21:49:07;;;;;;;1.20;1.10;;;;;;;18.36;46.11;97068.50;5101607;28;20243;-91
2022/04/12 21:51:33;;;;;;;1.33;1.23;;;;;;;18.86;45.83;97150.03;5092918;28;20214;-90
2022/04/12 21:54:00;;;;;;;1.40;1.30;;;;;;;18.76;45.52;97128.47;5118609;28;20176;-90
2022/04/12 21:56:26;;;;;;;1.50;1.40;;;;;;;17.87;46.06;96985.44;5118884;28;20182;-91
2022/04/12 21:58:53;;;;;;;1.20;1.10;;;;;;;18.53;45.89;97095.44;5084877;28;20191;-90
2022/04/12 22:01:20;;;;;;;1.30;1.20;;;;;;;17.96;45.88;97001.00;5100966;28;20192;-91
2022/04/12 22:03:47;;;;;;;1.40;1.30;;;;;;;17.65;45.18;96939.72;5101290;28;20180;-91
2022/04/12 22:06:13;;;;;;;1.30;1.20;;;;;;;18.23;45.93;97057.91;5084929;28;20183;-91
2022/04/12 22:08:41;;;;;;;1.10;1.10;;;;;;;18.94;45.86;97167.28;5101365;28;20191;-90
2022/04/12 22:11:08;;;;;;;1.27;1.13;;;;;;;19.00;46.03;97190.41;5100863;28;20200;-90
2022/04/12 22:13:37;;;;;;;1.33;1.23;;;;;;;18.01;45.99;97011.34;5100763;28;20434;-90
2022/04/12 22:16:04;;;;;;;1.20;1.10;;;;;;;18.67;46.09;97142.56;5101025;28;20243;-90
2022/04/12 22:18:30;;;;;;;1.33;1.23;;;;;;;18.87;45.95;97182.28;5084880;28;20191;-91
2022/04/12 22:20:57;;;;;;;1.20;1.20;;;;;;;19.05;45.95;97211.81;5067708;28;20184;-90
2022/04/12 22:23:24;;;;;;;1.47;1.33;;;;;;;18.41;46.06;97107.72;5101025;28;20199;-91
2022/04/12 22:25:50;;;;;;;1.43;1.33;;;;;;;17.85;45.88;96987.06;5067893;28;20180;-90
2022/04/12 22:28:17;;;;;;;1.30;1.20;;;;;;;19.04;45.75;97199.00;5100929;28;20191;-91
2022/04/12 22:30:46;;;;;;;1.27;1.17;;;;;;;18.01;46.02;97035.09;5100677;28;20190;-90
2022/04/12 22:33:12;;;;;;;1.50;1.40;;;;;;;19.11;46.17;97212.00;5117903;28;20235;-89
2022/04/12 22:35:39;;;;;;;2.73;1.30;;;;;;;19.10;46.28;97219.59;5099558;28;20180;-91
2022/04/12 22:38:06;;;;;;;1.40;1.30;;;;;;;18.47;45.91;97113.03;5100745;28;20180;-91
2022/04/12 22:40:32;;;;;;;1.30;1.20;;;;;;;18.49;45.93;97121.56;5100319;28;20728;-91
2022/04/12 22:42:59;;;;;;;1.40;1.30;;;;;;;17.80;46.12;97000.41;5100732;28;20200;-90
2022/04/12 22:45:26;;;;;;;1.17;1.13;;;;;;;17.93;46.03;97018.69;5100068;28;20218;-91
2022/04/12 22:47:55;;;;;;;1.50;1.40;;;;;;;18.06;46.00;97053.91;5118064;28;20183;-90
2022/04/12 22:50:23;;;;;;;1.50;1.40;;;;;;;18.89;46.03;97198.50;5117978;28;20330;-91
2022/04/12 22:52:50;;;;;;;1.30;1.20;;;;;;;18.49;45.95;97144.47;5099950;28;20207;-91
2022/04/12 22:55:17;;;;;;;1.13;1.13;;;;;;;18.42;45.95;97114.53;5080302;28;20181;-90
2022/04/12 22:57:51;;;;;;;1.40;1.30;;;;;;;18.11;45.92;97066.78;5081481;28;20210;-90
2022/04/12 23:00:18;;;;;;;0.90;0.90;;;;;;;19.29;45.86;97272.91;5096874;28;20196;-91
2022/04/12 23:02:45;;;;;;;1.30;1.20;;;;;;;18.17;45.70;97103.47;5083497;28;20233;-92
2022/04/12 23:05:12;;;;;;;1.63;1.20;;;;;;;18.69;45.93;97168.94;5100087;28;20180;-91
2022/04/12 23:07:38;;;;;;;1.30;1.20;;;;;;;18.43;45.85;97119.69;5083980;28;20222;-91
2022/04/12 23:10:06;;;;;;;1.33;1.23;;;;;;;18.16;45.98;97080.53;5099162;28;20230;-91
2022/04/12 23:12:33;;;;;;;1.53;1.43;;;;;;;19.37;45.91;97294.44;5099814;28;20211;-91
2022/04/12 23:14:59;;;;;;;1.33;1.23;;;;;;;18.88;46.05;97212.03;5099461;28;20186;-90
2022/04/12 23:17:26;;;;;;;1.40;1.30;;;;;;;18.51;46.14;97145.38;5083852;28;20184;-91
2022/04/12 23:19:53;;;;;;;1.13;1.13;;;;;;;18.56;46.09;97144.72;5099738;28;20176;-90
2022/04/12 23:22:19;;;;;;;1.30;1.20;;;;;;;18.46;46.01;97129.97;5082912;28;20199;-91
2022/04/12 23:24:46;;;;;;;1.13;1.10;;;;;;;18.12;45.87;97064.28;5066883;28;20205;-91
2022/04/12 23:27:13;;;;;;;1.67;1.43;;;;;;;17.90;46.05;97050.75;5117030;28;20186;-90
2022/04/12 23:29:41;;;;;;;1.20;1.10;;;;;;;17.85;46.06;97016.69;5100035;28;20185;-90
2022/04/12 23:32:07;;;;;;;1.50;1.40;;;;;;;18.54;46.11;97146.38;5083175;28;20234;-91
2022/04/12 23:34:34;;;;;;;1.73;1.30;;;;;;;18.00;45.99;97035.88;5079348;28;20226;-91
2022/04/12 23:37:01;;;;;;;1.30;1.20;;;;;;;18.03;46.21;97040.22;5066157;28;20184;-91
2022/04/12 23:39:48;;;;;;;1.40;1.30;;;;;;;18.62;46.16;97136.47;5115992;28;20186;-90
2022/04/12 23:42:15;;;;;;;1.57;1.20;;;;;;;18.17;46.19;97059.34;5066574;28;20200;-89
2022/04/12 23:44:41;;;;;;;1.47;1.37;;;;;;;18.11;45.97;97070.19;5099328;28;20172;-91
2022/04/12 23:47:08;;;;;;;1.40;1.30;;;;;;;18.51;45.98;97137.75;5099287;28;20196;-90
2022/04/12 23:49:34;;;;;;;1.40;1.30;;;;;;;18.12;46.11;97050.72;5079533;28;20187;-90
2022/04/12 23:52:01;;;;;;;1.30;1.20;;;;;;;18.01;46.18;97052.91;5087779;28;20203;-89
2022/04/12 23:54:28;;;;;;;1.43;1.20;;;;;;;17.77;46.23;97036.72;5082417;28;20184;-91
2022/04/12 23:56:54;;;;;;;1.20;1.10;;;;;;;18.56;45.88;97139.63;5082599;28;20186;-90
2022/04/12 23:59:22;;;;;;;1.10;1.10;;;;;;;18.93;45.97;97190.13;5099710;28;20184;-91
